createdAt,value
2023-05-09T03:58:55.899Z,1010.84
2023-05-09T03:59:55.720Z,1010.82
2023-05-09T04:00:55.721Z,1010.77
2023-05-09T04:01:55.834Z,1010.80
2023-05-09T04:02:55.747Z,1010.78
2023-05-09T04:03:55.732Z,1010.76
2023-05-09T04:04:55.867Z,1010.75
2023-05-09T04:05:55.698Z,1010.78
2023-05-09T04:06:55.672Z,1010.77
2023-05-09T04:07:55.704Z,1010.78
2023-05-09T04:08:55.697Z,1010.78
2023-05-09T04:09:55.652Z,1010.78
2023-05-09T04:10:55.679Z,1010.79
2023-05-09T04:11:55.661Z,1010.79
2023-05-09T04:12:55.679Z,1010.81
2023-05-09T04:13:55.654Z,1010.81
2023-05-09T04:14:55.777Z,1010.81
2023-05-09T04:15:55.637Z,1010.80
2023-05-09T04:16:55.696Z,1010.83
2023-05-09T04:17:55.694Z,1010.82
2023-05-09T04:18:55.626Z,1010.84
2023-05-09T04:19:55.643Z,1010.78
2023-05-09T04:20:55.616Z,1010.84
2023-05-09T04:21:55.604Z,1010.78
2023-05-09T04:22:55.592Z,1010.80
2023-05-09T04:23:55.613Z,1010.79
2023-05-09T04:24:55.592Z,1010.83
2023-05-09T04:25:55.617Z,1010.80
2023-05-09T04:26:55.581Z,1010.78
2023-05-09T04:27:55.577Z,1010.84
2023-05-09T04:28:55.586Z,1010.82
2023-05-09T04:29:55.584Z,1010.81
2023-05-09T04:30:55.779Z,1010.78
2023-05-09T04:31:55.871Z,1010.78
2023-05-09T04:32:55.636Z,1010.77
2023-05-09T04:33:55.582Z,1010.77
2023-05-09T04:34:55.570Z,1010.77
2023-05-09T04:35:55.596Z,1010.79
2023-05-09T04:36:55.555Z,1010.79
2023-05-09T04:37:55.545Z,1010.77
2023-05-09T04:38:55.546Z,1010.76
2023-05-09T04:39:55.551Z,1010.78
2023-05-09T04:40:55.537Z,1010.76
2023-05-09T04:41:55.564Z,1010.74
2023-05-09T04:42:55.538Z,1010.70
2023-05-09T04:43:55.537Z,1010.72
2023-05-09T04:44:55.548Z,1010.72
2023-05-09T04:45:55.552Z,1010.70
2023-05-09T04:46:55.653Z,1010.69
2023-05-09T04:47:55.547Z,1010.71
2023-05-09T04:48:55.534Z,1010.71
2023-05-09T04:49:55.525Z,1010.72
2023-05-09T04:50:55.515Z,1010.67
2023-05-09T04:51:55.512Z,1010.68
2023-05-09T04:52:55.529Z,1010.70
2023-05-09T04:53:55.506Z,1010.71
2023-05-09T04:54:55.520Z,1010.72
2023-05-09T04:55:55.507Z,1010.73
2023-05-09T04:57:03.182Z,1010.76
2023-05-09T04:57:55.483Z,1010.78
2023-05-09T04:58:55.482Z,1010.76
2023-05-09T04:59:55.497Z,1010.75
2023-05-09T05:00:55.482Z,1010.74
2023-05-09T05:01:55.496Z,1010.72
2023-05-09T05:02:55.620Z,1010.71
2023-05-09T05:03:55.497Z,1010.73
2023-05-09T05:05:06.247Z,1010.68
2023-05-09T05:05:55.474Z,1010.68
2023-05-09T05:06:55.458Z,1010.66
2023-05-09T05:07:55.454Z,1010.64
2023-05-09T05:08:55.453Z,1010.62
2023-05-09T05:09:55.448Z,1010.63
2023-05-09T05:10:55.469Z,1010.65
2023-05-09T05:12:01.822Z,1010.59
2023-05-09T05:12:55.473Z,1010.57
2023-05-09T05:13:55.446Z,1010.58
2023-05-09T05:14:55.425Z,1010.56
2023-05-09T05:15:55.457Z,1010.57
2023-05-09T05:16:55.442Z,1010.51
2023-05-09T05:17:55.449Z,1010.53
2023-05-09T05:18:55.556Z,1010.51
2023-05-09T05:19:55.416Z,1010.51
2023-05-09T05:20:55.429Z,1010.51
2023-05-09T05:21:55.412Z,1010.50
2023-05-09T05:22:55.425Z,1010.49
2023-05-09T05:23:55.450Z,1010.50
2023-05-09T05:24:55.447Z,1010.48
2023-05-09T05:25:55.418Z,1010.46
2023-05-09T05:26:55.411Z,1010.43
2023-05-09T05:27:55.409Z,1010.42
2023-05-09T05:28:55.391Z,1010.40
2023-05-09T05:29:55.393Z,1010.38
2023-05-09T05:30:55.426Z,1010.36
2023-05-09T05:31:55.468Z,1010.39
2023-05-09T05:32:55.460Z,1010.39
2023-05-09T05:33:55.418Z,1010.35
2023-05-09T05:34:55.516Z,1010.38
2023-05-09T05:35:55.376Z,1010.32
2023-05-09T05:36:55.380Z,1010.37
2023-05-09T05:37:55.378Z,1010.33
2023-05-09T05:38:55.384Z,1010.36
2023-05-09T05:39:55.359Z,1010.35
2023-05-09T05:40:55.365Z,1010.31
2023-05-09T05:41:55.367Z,1010.28
2023-05-09T05:42:55.360Z,1010.27
2023-05-09T05:43:55.370Z,1010.24
2023-05-09T05:44:55.361Z,1010.26
2023-05-09T05:45:55.395Z,1010.19
2023-05-09T05:46:55.381Z,1010.21
2023-05-09T05:47:55.460Z,1010.18
2023-05-09T05:48:55.354Z,1010.20
2023-05-09T05:49:55.459Z,1010.17
2023-05-09T05:50:55.573Z,1010.14
2023-05-09T05:51:55.824Z,1010.18
2023-05-09T05:52:55.410Z,1010.16
2023-05-09T05:53:55.485Z,1010.15
2023-05-09T05:54:55.437Z,1010.14
2023-05-09T05:55:56.065Z,1010.10
2023-05-09T05:56:55.368Z,1010.10
2023-05-09T05:57:55.315Z,1010.12
2023-05-09T05:58:55.322Z,1010.13
2023-05-09T05:59:55.407Z,1010.16
2023-05-09T06:00:55.697Z,1010.14
2023-05-09T06:01:55.616Z,1010.12
2023-05-09T06:02:55.485Z,1010.15
2023-05-09T06:03:55.405Z,1010.12
2023-05-09T06:04:56.168Z,1010.15
2023-05-09T06:05:55.569Z,1010.13
2023-05-09T06:06:55.423Z,1010.13
2023-05-09T06:07:55.325Z,1010.15
2023-05-09T06:08:55.345Z,1010.14
2023-05-09T06:09:55.311Z,1010.10
2023-05-09T06:10:55.317Z,1010.13
2023-05-09T06:11:55.290Z,1010.15
2023-05-09T06:12:55.332Z,1010.16
2023-05-09T06:13:55.338Z,1010.17
2023-05-09T06:14:55.380Z,1010.12
2023-05-09T06:15:57.699Z,1010.17
2023-05-09T06:16:55.349Z,1010.17
2023-05-09T06:17:55.330Z,1010.11
2023-05-09T06:18:56.283Z,1010.10
2023-05-09T06:19:55.302Z,1010.10
2023-05-09T06:20:55.303Z,1010.07
2023-05-09T06:21:55.289Z,1010.10
2023-05-09T06:22:55.498Z,1010.09
2023-05-09T06:24:05.919Z,1010.02
2023-05-09T06:24:55.323Z,1010.08
2023-05-09T06:25:55.275Z,1010.01
2023-05-09T06:26:55.265Z,1010.04
2023-05-09T06:27:55.361Z,1010.00
2023-05-09T06:28:55.304Z,1009.98
2023-05-09T06:35:32.622Z,1009.99
2023-05-09T06:36:32.663Z,1009.99
2023-05-09T06:37:32.615Z,1009.97
2023-05-09T06:38:32.619Z,1009.98
2023-05-09T06:39:32.574Z,1009.98
2023-05-09T06:40:32.622Z,1009.96
2023-05-09T06:41:32.579Z,1009.92
2023-05-09T06:42:32.575Z,1009.89
2023-05-09T06:43:32.620Z,1009.90
2023-05-09T06:44:32.648Z,1009.83
2023-05-09T06:45:32.669Z,1009.83
2023-05-09T06:46:32.657Z,1009.82
2023-05-09T06:47:32.631Z,1009.82
2023-05-09T06:48:32.596Z,1009.81
2023-05-09T06:49:32.568Z,1009.82
2023-05-09T06:50:32.986Z,1009.80
2023-05-09T06:51:32.566Z,1009.77
2023-05-09T06:52:32.619Z,1009.75
2023-05-09T06:53:32.582Z,1009.80
2023-05-09T06:54:32.687Z,1009.79
2023-05-09T06:55:32.678Z,1009.77
2023-05-09T06:56:32.609Z,1009.73
2023-05-09T06:57:32.552Z,1009.74
2023-05-09T06:58:32.586Z,1009.70
2023-05-09T06:59:32.566Z,1009.69
2023-05-09T07:00:32.565Z,1009.68
2023-05-09T07:01:32.692Z,1009.67
2023-05-09T07:02:32.588Z,1009.66
2023-05-09T07:03:32.551Z,1009.62
2023-05-09T07:04:32.600Z,1009.60
2023-05-09T07:05:32.632Z,1009.59
2023-05-09T07:06:32.558Z,1009.57
2023-05-09T07:07:32.572Z,1009.56
2023-05-09T07:08:32.586Z,1009.55
2023-05-09T07:09:32.603Z,1009.53
2023-05-09T07:10:32.660Z,1009.49
2023-05-09T07:11:32.549Z,1009.46
2023-05-09T07:12:32.557Z,1009.42
2023-05-09T07:13:32.555Z,1009.43
2023-05-09T07:14:32.626Z,1009.39
2023-05-09T07:15:40.358Z,1009.38
2023-05-09T07:16:33.671Z,1009.37
2023-05-09T07:17:32.625Z,1009.36
2023-05-09T07:18:32.538Z,1009.33
2023-05-09T07:19:32.559Z,1009.34
2023-05-09T07:20:32.557Z,1009.34
2023-05-09T07:21:32.554Z,1009.32
2023-05-09T07:22:34.769Z,1009.29
2023-05-09T07:23:32.548Z,1009.25
2023-05-09T07:24:32.584Z,1009.28
2023-05-09T07:25:32.573Z,1009.33
2023-05-09T07:26:32.655Z,1009.29
2023-05-09T07:27:32.543Z,1009.26
2023-05-09T07:28:32.565Z,1009.26
2023-05-09T07:29:32.596Z,1009.27
2023-05-09T07:30:33.279Z,1009.25
2023-05-09T07:31:35.293Z,1009.24
2023-05-09T07:32:33.595Z,1009.21
2023-05-09T07:33:32.570Z,1009.20
2023-05-09T07:34:32.630Z,1009.18
2023-05-09T07:35:32.851Z,1009.21
2023-05-09T07:36:33.617Z,1009.17
2023-05-09T07:37:32.572Z,1009.15
2023-05-09T07:38:32.631Z,1009.15
2023-05-09T07:39:32.580Z,1009.11
2023-05-09T07:40:32.567Z,1009.13
2023-05-09T07:41:32.573Z,1009.12
2023-05-09T07:42:32.719Z,1009.10
2023-05-09T07:43:32.510Z,1009.05
2023-05-09T07:44:32.570Z,1009.08
2023-05-09T07:45:32.737Z,1009.07
2023-05-09T07:46:32.529Z,1009.03
2023-05-09T07:47:32.554Z,1009.04
2023-05-09T07:48:32.533Z,1009.00
2023-05-09T07:49:32.657Z,1009.00
2023-05-09T07:50:32.575Z,1008.94
2023-05-09T07:51:32.581Z,1008.98
2023-05-09T07:52:32.630Z,1008.97
2023-05-09T07:53:32.522Z,1008.95
2023-05-09T07:54:32.577Z,1008.98
2023-05-09T07:55:32.572Z,1009.00
2023-05-09T07:56:32.503Z,1008.95
2023-05-09T07:57:32.579Z,1008.90
2023-05-09T07:58:32.654Z,1008.91
2023-05-09T07:59:32.522Z,1008.90
2023-05-09T08:00:32.518Z,1008.83
2023-05-09T08:01:32.593Z,1008.88
2023-05-09T08:02:32.694Z,1008.87
2023-05-09T08:03:32.583Z,1008.79
2023-05-09T08:04:32.534Z,1008.84
2023-05-09T08:05:32.579Z,1008.85
2023-05-09T08:06:32.527Z,1008.76
2023-05-09T08:07:32.538Z,1008.78
2023-05-09T08:08:32.509Z,1008.76
2023-05-09T08:09:32.525Z,1008.74
2023-05-09T08:10:32.545Z,1008.71
2023-05-09T08:11:32.534Z,1008.68
2023-05-09T08:12:32.536Z,1008.68
2023-05-09T08:13:32.551Z,1008.68
2023-05-09T08:14:32.679Z,1008.67
2023-05-09T08:15:32.565Z,1008.64
2023-05-09T08:16:32.693Z,1008.65
2023-05-09T08:18:32.589Z,1008.62
2023-05-09T08:19:32.572Z,1008.59
2023-05-09T08:20:32.527Z,1008.56
2023-05-09T08:21:32.538Z,1008.53
2023-05-09T08:22:32.654Z,1008.55
2023-05-09T08:23:32.513Z,1008.50
2023-05-09T08:24:32.548Z,1008.50
2023-05-09T08:25:32.535Z,1008.45
2023-05-09T08:26:32.534Z,1008.39
2023-05-09T08:27:32.551Z,1008.44
2023-05-09T08:28:32.531Z,1008.43
2023-05-09T08:29:32.742Z,1008.41
2023-05-09T08:30:32.639Z,1008.42
2023-05-09T08:31:32.619Z,1008.41
2023-05-09T08:32:32.624Z,1008.40
2023-05-09T08:33:32.550Z,1008.38
2023-05-09T08:34:32.601Z,1008.38
2023-05-09T08:35:32.638Z,1008.39
2023-05-09T08:36:32.617Z,1008.35
2023-05-09T08:37:32.546Z,1008.33
2023-05-09T08:38:32.582Z,1008.35
2023-05-09T08:39:32.554Z,1008.32
2023-05-09T08:40:32.626Z,1008.36
2023-05-09T08:41:32.588Z,1008.39
2023-05-09T08:42:32.974Z,1008.35
2023-05-09T08:43:32.674Z,1008.31
2023-05-09T08:44:32.617Z,1008.29
2023-05-09T08:45:32.579Z,1008.29
2023-05-09T08:46:32.797Z,1008.25
2023-05-09T08:47:32.595Z,1008.22
2023-05-09T08:48:35.249Z,1008.22
2023-05-09T08:49:32.545Z,1008.25
2023-05-09T08:50:32.530Z,1008.23
2023-05-09T08:51:32.545Z,1008.25
2023-05-09T08:52:32.560Z,1008.21
2023-05-09T08:53:32.555Z,1008.17
2023-05-09T08:54:32.536Z,1008.17
2023-05-09T08:55:32.536Z,1008.13
2023-05-09T08:56:32.574Z,1008.18
2023-05-09T08:57:32.561Z,1008.16
2023-05-09T08:58:32.687Z,1008.22
2023-05-09T08:59:32.626Z,1008.15
2023-05-09T09:00:32.582Z,1008.17
2023-05-09T09:04:41.663Z,1008.17
2023-05-09T09:05:42.390Z,1008.13
2023-05-09T09:06:41.349Z,1008.13
2023-05-09T10:13:22.818Z,1007.56
2023-05-09T10:14:22.549Z,1007.55
2023-05-09T10:15:22.521Z,1007.52
2023-05-09T10:16:35.533Z,1007.50
2023-05-09T10:17:22.780Z,1007.51
2023-05-09T10:18:22.726Z,1007.46
2023-05-09T10:19:22.528Z,1007.47
2023-05-09T10:20:22.521Z,1007.44
2023-05-09T10:21:22.671Z,1007.41
2023-05-09T10:22:22.550Z,1007.42
2023-05-09T10:23:23.569Z,1007.41
2023-05-09T10:24:22.541Z,1007.41
2023-05-09T10:25:22.518Z,1007.39
2023-05-09T10:26:22.529Z,1007.34
2023-05-09T10:27:22.619Z,1007.39
2023-05-09T10:28:22.629Z,1007.33
2023-05-09T10:29:22.700Z,1007.35
2023-05-09T10:30:22.785Z,1007.32
2023-05-09T10:31:22.767Z,1007.33
2023-05-09T10:32:22.537Z,1007.34
2023-05-09T10:33:22.579Z,1007.27
2023-05-09T10:34:22.545Z,1007.24
2023-05-09T10:35:22.568Z,1007.21
2023-05-09T10:36:22.556Z,1007.22
2023-05-09T10:37:22.523Z,1007.19
2023-05-09T10:38:22.576Z,1007.21
2023-05-09T10:39:22.483Z,1007.15
2023-05-09T10:40:22.711Z,1007.15
2023-05-09T10:41:22.635Z,1007.13
2023-05-09T10:42:22.525Z,1007.09
2023-05-09T10:43:22.489Z,1007.08
2023-05-09T10:44:22.569Z,1007.05
2023-05-09T10:45:22.689Z,1007.07
2023-05-09T10:46:22.504Z,1007.04
2023-05-09T10:47:22.572Z,1007.01
2023-05-09T10:48:22.498Z,1006.99
2023-05-09T10:49:22.564Z,1006.98
2023-05-09T10:50:22.567Z,1006.96
2023-05-09T10:51:22.494Z,1006.94
2023-05-09T10:52:22.488Z,1006.94
2023-05-09T10:53:22.497Z,1006.90
2023-05-09T10:54:22.510Z,1006.89
2023-05-09T10:55:22.481Z,1006.86
2023-05-09T10:56:22.659Z,1006.91
2023-05-09T10:57:22.525Z,1006.87
2023-05-09T10:58:22.590Z,1006.84
2023-05-09T11:00:22.519Z,1006.82
2023-05-09T11:01:22.718Z,1006.80
2023-05-09T11:02:22.564Z,1006.76
2023-05-09T11:03:22.535Z,1006.74
2023-05-09T11:04:22.495Z,1006.71
2023-05-09T11:05:22.536Z,1006.71
2023-05-09T11:06:22.489Z,1006.67
2023-05-09T11:07:22.686Z,1006.69
2023-05-09T11:08:22.501Z,1006.63
2023-05-09T11:09:23.713Z,1006.62
2023-05-09T11:10:22.553Z,1006.62
2023-05-09T11:11:22.645Z,1006.60
2023-05-09T11:12:22.557Z,1006.62
2023-05-09T11:13:23.347Z,1006.58
2023-05-09T11:14:22.515Z,1006.56
2023-05-09T11:15:22.501Z,1006.57
2023-05-09T11:16:23.879Z,1006.55
2023-05-09T11:17:22.894Z,1006.56
2023-05-09T11:18:22.552Z,1006.55
2023-05-09T11:19:22.540Z,1006.56
2023-05-09T11:20:22.516Z,1006.55
2023-05-09T11:21:22.478Z,1006.52
2023-05-09T11:22:22.503Z,1006.53
2023-05-09T11:23:22.495Z,1006.52
2023-05-09T11:24:22.501Z,1006.52
2023-05-09T11:25:22.536Z,1006.50
2023-05-09T11:26:22.503Z,1006.51
2023-05-09T11:27:22.576Z,1006.48
2023-05-09T11:28:22.557Z,1006.47
2023-05-09T11:29:22.512Z,1006.49
2023-05-09T11:30:22.506Z,1006.43
2023-05-09T11:31:22.551Z,1006.45
2023-05-09T11:32:22.716Z,1006.43
2023-05-09T11:33:22.656Z,1006.37
2023-05-09T11:34:22.568Z,1006.39
2023-05-09T11:35:22.599Z,1006.36
2023-05-09T11:36:22.549Z,1006.34
2023-05-09T11:37:22.513Z,1006.36
2023-05-09T11:38:22.546Z,1006.33
2023-05-09T11:39:24.261Z,1006.32
2023-05-09T11:40:22.605Z,1006.29
2023-05-09T11:41:22.507Z,1006.32
2023-05-09T11:42:22.519Z,1006.25
2023-05-09T11:43:22.500Z,1006.26
2023-05-09T11:44:22.513Z,1006.26
2023-05-09T11:45:22.538Z,1006.24
2023-05-09T11:46:22.610Z,1006.21
2023-05-09T11:47:22.554Z,1006.26
2023-05-09T11:48:22.489Z,1006.19
2023-05-09T11:49:22.602Z,1006.22
2023-05-09T11:50:22.573Z,1006.18
2023-05-09T11:51:22.583Z,1006.19
2023-05-09T11:52:22.521Z,1006.17
2023-05-09T11:53:22.505Z,1006.14
2023-05-09T11:54:22.509Z,1006.16
2023-05-09T11:55:22.692Z,1006.16
2023-05-09T11:56:22.553Z,1006.10
2023-05-09T11:57:22.559Z,1006.11
2023-05-09T11:58:22.528Z,1006.11
2023-05-09T11:59:22.914Z,1006.11
2023-05-09T12:00:22.537Z,1006.07
2023-05-09T12:01:22.521Z,1006.08
2023-05-09T12:02:22.872Z,1006.02
2023-05-09T12:03:22.779Z,1006.01
2023-05-09T12:04:22.689Z,1006.00
2023-05-09T12:05:22.688Z,1005.94
2023-05-09T12:06:22.516Z,1005.92
2023-05-09T12:07:22.561Z,1005.90
2023-05-09T12:08:22.494Z,1005.88
2023-05-09T12:09:22.653Z,1005.85
2023-05-09T12:10:22.605Z,1005.89
2023-05-09T12:11:22.497Z,1005.81
2023-05-09T12:12:22.509Z,1005.80
2023-05-09T12:13:22.596Z,1005.74
2023-05-09T12:14:22.525Z,1005.79
2023-05-09T12:15:22.552Z,1005.77
2023-05-09T12:16:22.546Z,1005.78
2023-05-09T12:17:22.642Z,1005.76
2023-05-09T12:18:22.734Z,1005.75
2023-05-09T12:19:22.532Z,1005.74
2023-05-09T12:20:22.513Z,1005.67
2023-05-09T12:21:22.677Z,1005.65
2023-05-09T12:22:22.573Z,1005.63
2023-05-09T12:23:22.539Z,1005.64
2023-05-09T12:24:22.518Z,1005.65
2023-05-09T12:25:22.520Z,1005.63
2023-05-09T12:26:22.499Z,1005.59
2023-05-09T12:27:22.525Z,1005.55
2023-05-09T12:28:22.519Z,1005.61
2023-05-09T12:29:22.505Z,1005.55
2023-05-09T12:30:22.507Z,1005.56
2023-05-09T12:31:22.595Z,1005.60
2023-05-09T12:32:22.501Z,1005.54
2023-05-09T12:33:22.555Z,1005.54
2023-05-09T12:34:22.550Z,1005.53
2023-05-09T12:35:22.522Z,1005.53
2023-05-09T12:36:22.569Z,1005.54
2023-05-09T12:37:22.687Z,1005.56
2023-05-09T12:38:22.606Z,1005.52
2023-05-09T12:39:22.528Z,1005.49
2023-05-09T12:42:55.080Z,1005.47
2023-05-09T12:43:55.065Z,1005.45
2023-05-09T12:44:55.069Z,1005.42
2023-05-09T12:45:55.120Z,1005.44
2023-05-09T12:46:55.117Z,1005.42
2023-05-09T12:47:55.108Z,1005.46
2023-05-09T12:48:55.119Z,1005.43
2023-05-09T12:49:55.144Z,1005.39
2023-05-09T12:50:55.173Z,1005.43
2023-05-09T12:51:55.068Z,1005.39
2023-05-09T12:53:02.661Z,1005.42
2023-05-09T12:53:55.086Z,1005.49
2023-05-09T12:54:55.128Z,1005.52
2023-05-09T12:55:55.126Z,1005.55
2023-05-09T12:56:55.083Z,1005.55
2023-05-09T12:57:55.118Z,1005.56
2023-05-09T12:58:55.134Z,1005.54
2023-05-09T12:59:55.069Z,1005.56
2023-05-09T13:00:55.088Z,1005.56
2023-05-09T13:01:55.122Z,1005.59
2023-05-09T13:02:55.251Z,1005.62
2023-05-09T13:03:55.071Z,1005.57
2023-05-09T13:04:55.181Z,1005.56
2023-05-09T13:05:55.081Z,1005.48
2023-05-09T13:06:55.149Z,1005.49
2023-05-09T13:07:55.100Z,1005.44
2023-05-09T13:08:57.421Z,1005.39
2023-05-09T13:09:55.168Z,1005.35
2023-05-09T13:11:03.882Z,1005.33
2023-05-09T13:11:55.058Z,1005.30
2023-05-09T13:12:55.090Z,1005.29
2023-05-09T13:13:55.104Z,1005.29
2023-05-09T13:14:55.120Z,1005.25
2023-05-09T13:15:55.063Z,1005.22
2023-05-09T13:16:55.080Z,1005.21
2023-05-09T13:17:55.169Z,1005.20
2023-05-09T13:18:55.099Z,1005.15
2023-05-09T13:19:55.078Z,1005.15
2023-05-09T13:20:55.110Z,1005.12
2023-05-09T13:21:55.072Z,1005.09
2023-05-09T13:22:55.047Z,1005.08
2023-05-09T13:23:55.082Z,1005.03
2023-05-09T13:24:55.200Z,1005.08
2023-05-09T13:25:55.092Z,1005.03
2023-05-09T13:26:55.123Z,1005.02
2023-05-09T13:27:55.055Z,1005.02
2023-05-09T13:28:55.237Z,1005.00
2023-05-09T13:29:55.045Z,1004.98
2023-05-09T13:30:55.169Z,1004.98
2023-05-09T13:31:55.065Z,1004.95
2023-05-09T13:32:55.066Z,1004.96
2023-05-09T13:33:55.161Z,1004.93
2023-05-09T13:34:55.055Z,1004.86
2023-05-09T13:35:55.132Z,1004.91
2023-05-09T13:36:55.120Z,1004.88
2023-05-09T13:37:55.035Z,1004.86
2023-05-09T13:38:55.108Z,1004.86
2023-05-09T13:39:55.076Z,1004.86
2023-05-09T13:40:55.169Z,1004.83
2023-05-09T13:41:55.084Z,1004.80
2023-05-09T13:42:55.114Z,1004.76
2023-05-09T13:43:55.124Z,1004.76
2023-05-09T13:44:55.969Z,1004.72
2023-05-09T13:45:55.214Z,1004.71
2023-05-09T13:46:55.143Z,1004.69
2023-05-09T13:47:55.112Z,1004.67
2023-05-09T13:48:55.067Z,1004.63
2023-05-09T13:49:55.065Z,1004.65
2023-05-09T13:50:55.902Z,1004.66
2023-05-09T13:51:55.046Z,1004.58
2023-05-09T13:52:55.062Z,1004.59
2023-05-09T13:53:55.052Z,1004.57
2023-05-09T13:54:55.022Z,1004.58
2023-05-09T13:55:55.037Z,1004.52
2023-05-09T13:56:55.159Z,1004.52
2023-05-09T13:57:55.133Z,1004.55
2023-05-09T13:58:55.020Z,1004.53
2023-05-09T13:59:55.026Z,1004.52
2023-05-09T14:00:55.032Z,1004.52
2023-05-09T14:01:55.067Z,1004.53
2023-05-09T14:02:55.075Z,1004.52
2023-05-09T14:03:55.108Z,1004.48
2023-05-09T14:04:55.013Z,1004.47
2023-05-09T14:05:55.029Z,1004.46
2023-05-09T14:07:16.021Z,1004.44
2023-05-09T14:07:55.032Z,1004.43
2023-05-09T14:08:55.014Z,1004.39
2023-05-09T14:10:04.851Z,1004.42
2023-05-09T14:10:55.040Z,1004.42
2023-05-09T14:11:55.479Z,1004.38
2023-05-09T14:12:55.154Z,1004.37
2023-05-09T14:13:55.029Z,1004.39
2023-05-09T14:14:55.049Z,1004.39
2023-05-09T14:15:55.061Z,1004.34
2023-05-09T14:16:55.023Z,1004.37
2023-05-09T14:17:55.042Z,1004.36
2023-05-09T14:18:55.004Z,1004.33
2023-05-09T14:19:55.029Z,1004.32
2023-05-09T14:20:55.017Z,1004.32
2023-05-09T14:21:55.020Z,1004.30
2023-05-09T14:22:55.026Z,1004.28
2023-05-09T14:23:55.000Z,1004.28
2023-05-09T14:24:55.002Z,1004.29
2023-05-09T14:25:55.026Z,1004.27
2023-05-09T14:26:55.024Z,1004.22
2023-05-09T14:27:55.013Z,1004.23
2023-05-09T14:28:55.123Z,1004.22
2023-05-09T14:29:55.016Z,1004.20
2023-05-09T14:30:55.034Z,1004.22
2023-05-09T14:31:55.126Z,1004.22
2023-05-09T14:32:55.008Z,1004.19
2023-05-09T14:33:55.022Z,1004.20
2023-05-09T14:34:55.091Z,1004.18
2023-05-09T14:35:55.031Z,1004.18
2023-05-09T14:36:55.007Z,1004.13
2023-05-09T14:37:55.011Z,1004.15
2023-05-09T14:38:55.060Z,1004.15
2023-05-09T14:39:55.033Z,1004.17
2023-05-09T14:40:55.010Z,1004.15
2023-05-09T14:41:55.012Z,1004.16
2023-05-09T14:42:54.997Z,1004.12
2023-05-09T14:43:55.004Z,1004.17
2023-05-09T14:44:55.157Z,1004.14
2023-05-09T14:45:55.031Z,1004.17
2023-05-09T14:46:55.072Z,1004.17
2023-05-09T14:47:55.014Z,1004.12
2023-05-09T14:48:54.995Z,1004.12
2023-05-09T14:49:55.018Z,1004.13
2023-05-09T14:50:55.003Z,1004.08
2023-05-09T14:51:55.006Z,1004.09
2023-05-09T14:52:54.975Z,1004.13
2023-05-09T14:53:54.979Z,1004.11
2023-05-09T14:54:54.988Z,1004.12
2023-05-09T14:55:54.978Z,1004.07
2023-05-09T14:56:55.020Z,1004.16
2023-05-09T14:57:55.011Z,1004.16
2023-05-09T14:58:54.982Z,1004.18
2023-05-09T14:59:56.150Z,1004.14
2023-05-09T15:00:55.117Z,1004.13
2023-05-09T15:01:54.992Z,1004.09
2023-05-09T15:02:55.025Z,1004.05
2023-05-09T15:03:54.973Z,1004.06
2023-05-09T15:04:54.967Z,1004.04
2023-05-09T15:05:54.974Z,1003.99
2023-05-09T15:06:55.003Z,1004.00
2023-05-09T15:07:54.964Z,1003.98
2023-05-09T15:08:54.961Z,1003.94
2023-05-09T15:09:54.966Z,1003.87
2023-05-09T15:10:54.957Z,1003.84
2023-05-09T15:11:55.045Z,1003.78
2023-05-09T15:12:55.055Z,1003.80
2023-05-09T15:13:54.966Z,1003.85
2023-05-09T15:14:54.971Z,1003.81
2023-05-09T15:15:54.946Z,1003.76
2023-05-09T15:16:55.106Z,1003.69
2023-05-09T15:17:54.955Z,1003.65
2023-05-09T15:18:54.942Z,1003.64
2023-05-09T15:19:54.939Z,1003.64
2023-05-09T15:20:54.938Z,1003.61
2023-05-09T15:21:54.958Z,1003.62
2023-05-09T15:22:55.025Z,1003.61
2023-05-09T15:23:54.938Z,1003.60
2023-05-09T15:24:54.960Z,1003.59
2023-05-09T15:25:54.945Z,1003.53
2023-05-09T15:26:54.985Z,1003.52
2023-05-09T15:27:54.942Z,1003.49
2023-05-09T15:28:54.957Z,1003.48
2023-05-09T15:29:54.933Z,1003.47
2023-05-09T15:30:54.950Z,1003.46
2023-05-09T15:31:54.923Z,1003.44
2023-05-09T15:32:55.087Z,1003.41
2023-05-09T15:33:54.944Z,1003.40
2023-05-09T15:34:54.960Z,1003.39
2023-05-09T15:35:54.918Z,1003.35
2023-05-09T15:36:54.915Z,1003.38
2023-05-09T15:37:54.942Z,1003.34
2023-05-09T15:38:54.910Z,1003.37
2023-05-09T15:39:54.931Z,1003.34
2023-05-09T15:40:54.927Z,1003.33
2023-05-09T15:41:54.912Z,1003.39
2023-05-09T15:42:54.914Z,1003.36
2023-05-09T15:43:54.912Z,1003.34
2023-05-09T15:44:54.914Z,1003.33
2023-05-09T15:45:54.935Z,1003.33
2023-05-09T15:46:54.904Z,1003.31
2023-05-09T15:47:54.937Z,1003.32
2023-05-09T15:48:56.192Z,1003.32
2023-05-09T15:49:54.902Z,1003.33
2023-05-09T15:50:54.889Z,1003.27
2023-05-09T15:51:54.913Z,1003.27
2023-05-09T15:52:54.915Z,1003.26
2023-05-09T15:53:54.890Z,1003.24
2023-05-09T15:54:54.911Z,1003.21
2023-05-09T15:55:54.921Z,1003.18
2023-05-09T15:56:54.889Z,1003.18
2023-05-09T15:57:54.895Z,1003.19
2023-05-09T15:58:54.916Z,1003.21
2023-05-09T15:59:54.902Z,1003.16
2023-05-09T16:00:54.899Z,1003.15
2023-05-09T16:12:35.780Z,1003.11
2023-05-09T16:13:36.055Z,1003.10
2023-05-09T16:14:35.714Z,1003.09
2023-05-09T16:15:35.644Z,1003.04
2023-05-09T16:16:35.731Z,1003.08
2023-05-09T16:17:35.612Z,1003.06
2023-05-09T16:18:35.619Z,1003.04
2023-05-09T16:19:36.040Z,1003.03
2023-05-09T16:20:35.602Z,1003.03
2023-05-09T16:21:35.637Z,1003.07
2023-05-09T16:22:35.606Z,1002.98
2023-05-09T16:23:35.614Z,1003.04
2023-05-09T16:24:35.603Z,1002.97
2023-05-09T16:25:35.676Z,1002.95
2023-05-09T16:26:35.638Z,1002.97
2023-05-09T16:27:35.613Z,1002.90
2023-05-09T16:28:35.693Z,1002.93
2023-05-09T16:29:35.597Z,1002.94
2023-05-09T16:30:35.594Z,1002.93
2023-05-09T16:31:35.929Z,1002.93
2023-05-09T16:32:35.589Z,1002.96
2023-05-09T16:33:35.586Z,1002.94
2023-05-09T16:34:35.575Z,1002.96
2023-05-09T16:35:35.585Z,1002.96
2023-05-09T16:36:35.603Z,1002.94
2023-05-09T16:37:35.853Z,1002.93
2023-05-09T16:38:35.619Z,1002.92
2023-05-09T16:39:35.577Z,1002.93
2023-05-09T16:40:35.565Z,1002.90
2023-05-09T16:41:35.624Z,1002.92
2023-05-09T16:42:35.605Z,1002.92
2023-05-09T16:43:35.560Z,1002.88
2023-05-09T16:44:35.673Z,1002.86
2023-05-09T16:45:35.592Z,1002.83
2023-05-09T16:46:35.548Z,1002.81
2023-05-09T16:47:35.564Z,1002.80
2023-05-09T16:48:35.556Z,1002.82
2023-05-09T16:49:35.538Z,1002.84
2023-05-09T16:50:35.544Z,1002.84
2023-05-09T16:51:35.544Z,1002.84
2023-05-09T16:52:35.544Z,1002.83
2023-05-09T16:53:35.540Z,1002.84
2023-05-09T16:54:35.539Z,1002.82
2023-05-09T16:55:35.846Z,1002.80
2023-05-09T16:56:35.540Z,1002.85
2023-05-09T16:57:35.533Z,1002.82
2023-05-09T16:58:36.786Z,1002.85
2023-05-09T16:59:35.546Z,1002.88
2023-05-09T17:00:35.647Z,1002.88
2023-05-09T17:01:35.662Z,1002.89
2023-05-09T17:02:35.606Z,1002.85
2023-05-09T17:03:35.509Z,1002.94
2023-05-09T17:04:37.776Z,1002.90
2023-05-09T17:05:35.514Z,1002.95
2023-05-09T17:06:35.505Z,1002.95
2023-05-09T17:07:35.524Z,1002.99
2023-05-09T17:08:35.510Z,1003.07
2023-05-09T17:09:35.498Z,1003.14
2023-05-09T17:10:37.446Z,1003.21
2023-05-09T17:11:35.507Z,1003.23
2023-05-09T17:12:35.506Z,1003.21
2023-05-09T17:13:35.519Z,1003.17
2023-05-09T17:14:35.497Z,1003.16
2023-05-09T17:15:35.509Z,1003.32
2023-05-09T17:16:37.958Z,1003.34
2023-05-09T17:17:35.509Z,1003.30
2023-05-09T17:18:38.027Z,1003.31
2023-05-09T17:19:35.488Z,1003.28
2023-05-09T17:20:35.488Z,1003.28
2023-05-09T17:21:35.477Z,1003.34
2023-05-09T17:22:37.143Z,1003.37
2023-05-09T17:23:35.480Z,1003.35
2023-05-09T17:24:35.487Z,1003.38
2023-05-09T17:25:35.488Z,1003.35
2023-05-09T17:26:35.475Z,1003.35
2023-05-09T17:27:35.467Z,1003.32
2023-05-09T17:28:35.493Z,1003.30
2023-05-09T17:29:35.477Z,1003.22
2023-05-09T17:30:35.459Z,1003.18
2023-05-09T17:31:35.535Z,1003.15
2023-05-09T17:32:35.584Z,1003.13
2023-05-09T17:33:35.470Z,1003.08